createdAt,value
2023-02-08T00:00:58.236Z,-4.20
2023-02-08T00:01:59.011Z,-4.31
2023-02-08T00:02:58.301Z,-4.22
2023-02-08T00:03:58.290Z,-4.35
2023-02-08T00:04:58.235Z,-4.38
2023-02-08T00:05:58.213Z,-4.35
2023-02-08T00:06:58.216Z,-4.32
2023-02-08T00:07:58.208Z,-4.28
2023-02-08T00:08:58.196Z,-4.30
2023-02-08T00:09:58.180Z,-4.25
2023-02-08T00:10:58.206Z,-4.35
2023-02-08T00:11:58.217Z,-4.27
2023-02-08T00:12:58.169Z,-4.30
2023-02-08T00:13:58.163Z,-4.30
2023-02-08T00:14:58.144Z,-4.24
2023-02-08T00:15:58.202Z,-4.20
2023-02-08T00:16:58.137Z,-4.24
2023-02-08T00:17:58.122Z,-4.27
2023-02-08T00:18:58.103Z,-4.28
2023-02-08T00:20:30.060Z,-4.39
2023-02-08T00:20:58.190Z,-4.28
2023-02-08T00:21:58.108Z,-4.27
2023-02-08T00:22:59.128Z,-4.22
2023-02-08T00:23:58.085Z,-4.22
2023-02-08T00:24:58.053Z,-4.27
2023-02-08T00:25:58.144Z,-4.25
2023-02-08T00:26:58.071Z,-4.22
2023-02-08T00:27:58.119Z,-4.34
2023-02-08T00:28:59.020Z,-4.28
2023-02-08T00:29:58.040Z,-4.22
2023-02-08T00:30:58.229Z,-4.27
2023-02-08T00:31:58.068Z,-4.30
2023-02-08T00:32:58.144Z,-4.35
2023-02-08T00:33:58.040Z,-4.39
2023-02-08T00:34:58.011Z,-4.38
2023-02-08T00:35:58.041Z,-4.34
2023-02-08T00:36:57.979Z,-4.57
2023-02-08T00:37:57.992Z,-4.64
2023-02-08T00:38:57.958Z,-4.48
2023-02-08T00:39:58.608Z,-4.52
2023-02-08T00:40:58.141Z,-4.46
2023-02-08T00:41:57.943Z,-4.59
2023-02-08T00:42:57.947Z,-4.48
2023-02-08T00:43:58.045Z,-4.59
2023-02-08T00:44:57.947Z,-4.46
2023-02-08T00:45:57.923Z,-4.67
2023-02-08T00:46:57.914Z,-4.69
2023-02-08T00:47:57.922Z,-4.66
2023-02-08T00:48:57.919Z,-4.70
2023-02-08T00:49:57.899Z,-4.67
2023-02-08T00:50:57.869Z,-4.70
2023-02-08T00:51:57.867Z,-4.73
2023-02-08T00:52:57.876Z,-4.64
2023-02-08T00:53:57.890Z,-4.78
2023-02-08T00:54:57.866Z,-4.64
2023-02-08T00:55:57.880Z,-4.66
2023-02-08T00:56:57.828Z,-4.64
2023-02-08T00:57:57.840Z,-4.70
2023-02-08T00:58:58.092Z,-4.60
2023-02-08T00:59:57.841Z,-4.66
2023-02-08T01:00:57.852Z,-4.57
2023-02-08T01:01:57.900Z,-4.64
2023-02-08T01:02:57.782Z,-4.69
2023-02-08T01:03:57.789Z,-4.78
2023-02-08T01:04:57.763Z,-4.69
2023-02-08T01:05:57.764Z,-4.75
2023-02-08T01:06:57.748Z,-4.85
2023-02-08T01:07:57.740Z,-4.81
2023-02-08T01:08:57.792Z,-4.81
2023-02-08T01:09:57.755Z,-4.81
2023-02-08T01:10:57.738Z,-4.81
2023-02-08T01:11:57.729Z,-4.79
2023-02-08T01:12:57.914Z,-4.84
2023-02-08T01:13:57.769Z,-4.87
2023-02-08T01:14:57.754Z,-4.77
2023-02-08T01:15:57.724Z,-4.78
2023-02-08T01:16:57.699Z,-4.69
2023-02-08T01:17:57.712Z,-4.57
2023-02-08T01:18:57.696Z,-4.63
2023-02-08T01:19:59.147Z,-4.70
2023-02-08T01:20:57.687Z,-4.78
2023-02-08T01:21:57.702Z,-4.73
2023-02-08T01:22:57.664Z,-4.69
2023-02-08T01:23:57.649Z,-4.75
2023-02-08T01:24:57.657Z,-4.78
2023-02-08T01:25:58.602Z,-4.85
2023-02-08T01:26:57.653Z,-4.79
2023-02-08T01:27:57.665Z,-4.88
2023-02-08T01:28:57.581Z,-4.77
2023-02-08T01:29:57.593Z,-4.85
2023-02-08T01:30:57.626Z,-4.77
2023-02-08T01:31:57.604Z,-4.73
2023-02-08T01:32:57.589Z,-4.78
2023-02-08T01:33:57.606Z,-4.88
2023-02-08T01:34:57.611Z,-4.82
2023-02-08T01:35:57.562Z,-4.84
2023-02-08T01:36:57.559Z,-4.89
2023-02-08T01:37:57.545Z,-4.96
2023-02-08T01:38:57.524Z,-4.92
2023-02-08T01:39:57.523Z,-5.09
2023-02-08T01:40:57.529Z,-5.10
2023-02-08T01:41:57.520Z,-5.09
2023-02-08T01:42:57.497Z,-5.09
2023-02-08T01:43:57.632Z,-5.03
2023-02-08T01:44:57.491Z,-4.95
2023-02-08T01:45:57.494Z,-5.00
2023-02-08T01:46:57.544Z,-4.99
2023-02-08T01:47:57.487Z,-4.96
2023-02-08T01:48:57.490Z,-4.91
2023-02-08T01:49:57.490Z,-4.88
2023-02-08T01:50:57.475Z,-5.03
2023-02-08T01:51:57.456Z,-5.14
2023-02-08T01:52:57.473Z,-5.17
2023-02-08T01:53:57.427Z,-5.09
2023-02-08T01:54:57.444Z,-5.13
2023-02-08T01:55:58.139Z,-5.18
2023-02-08T01:56:57.394Z,-5.10
2023-02-08T01:57:57.440Z,-5.21
2023-02-08T01:58:57.444Z,-5.06
2023-02-08T01:59:57.662Z,-5.08
2023-02-08T02:00:57.387Z,-5.21
2023-02-08T02:01:57.389Z,-5.13
2023-02-08T02:02:57.353Z,-5.13
2023-02-08T02:03:57.344Z,-5.21
2023-02-08T02:04:57.353Z,-5.18
2023-02-08T02:05:57.337Z,-5.13
2023-02-08T02:06:57.321Z,-5.21
2023-02-08T02:07:57.306Z,-5.18
2023-02-08T02:08:57.307Z,-5.00
2023-02-08T02:09:57.322Z,-4.99
2023-02-08T02:10:58.074Z,-4.92
2023-02-08T02:11:58.307Z,-5.03
2023-02-08T02:12:57.270Z,-5.00
2023-02-08T02:13:57.279Z,-4.96
2023-02-08T02:14:57.259Z,-4.82
2023-02-08T02:15:57.256Z,-4.87
2023-02-08T02:16:57.268Z,-4.84
2023-02-08T02:17:57.232Z,-4.81
2023-02-08T02:18:57.582Z,-4.85
2023-02-08T02:19:57.221Z,-4.87
2023-02-08T02:20:57.224Z,-4.87
2023-02-08T02:21:57.332Z,-4.84
2023-02-08T02:22:57.336Z,-4.96
2023-02-08T02:23:57.198Z,-4.98
2023-02-08T02:24:57.192Z,-4.95
2023-02-08T02:25:57.188Z,-4.88
2023-02-08T02:26:57.184Z,-4.99
2023-02-08T02:27:57.288Z,-4.92
2023-02-08T02:28:57.175Z,-4.92
2023-02-08T02:29:57.178Z,-4.92
2023-02-08T02:30:57.134Z,-5.00
2023-02-08T02:31:57.276Z,-5.06
2023-02-08T02:32:57.163Z,-5.08
2023-02-08T02:33:57.137Z,-5.18
2023-02-08T02:34:57.109Z,-5.24
2023-02-08T02:35:57.120Z,-5.10
2023-02-08T02:36:57.127Z,-5.09
2023-02-08T02:37:57.101Z,-5.13
2023-02-08T02:38:57.085Z,-5.17
2023-02-08T02:39:57.075Z,-5.24
2023-02-08T02:40:57.191Z,-5.25
2023-02-08T02:41:57.082Z,-5.22
2023-02-08T02:42:57.109Z,-5.27
2023-02-08T02:43:57.041Z,-5.28
2023-02-08T02:44:57.039Z,-5.33
2023-02-08T02:45:57.167Z,-5.25
2023-02-08T02:46:57.100Z,-5.21
2023-02-08T02:47:57.043Z,-5.28
2023-02-08T02:48:57.013Z,-5.28
2023-02-08T02:49:57.010Z,-5.18
2023-02-08T02:50:57.006Z,-5.09
2023-02-08T02:51:57.055Z,-5.08
2023-02-08T02:52:56.993Z,-5.10
2023-02-08T02:53:56.990Z,-4.98
2023-02-08T02:54:57.019Z,-4.84
2023-02-08T02:55:56.966Z,-4.91
2023-02-08T02:56:56.974Z,-4.87
2023-02-08T02:57:56.972Z,-4.88
2023-02-08T02:58:56.946Z,-4.79
2023-02-08T02:59:56.991Z,-4.79
2023-02-08T03:00:56.961Z,-4.85
2023-02-08T03:01:56.920Z,-4.78
2023-02-08T03:02:56.969Z,-4.77
2023-02-08T03:03:56.927Z,-4.73
2023-02-08T03:04:56.905Z,-4.63
2023-02-08T03:05:56.890Z,-4.67
2023-02-08T03:06:56.894Z,-4.79
2023-02-08T03:07:56.916Z,-4.77
2023-02-08T03:08:56.883Z,-4.81
2023-02-08T03:09:56.905Z,-4.69
2023-02-08T03:10:56.854Z,-4.67
2023-02-08T03:11:56.892Z,-4.59
2023-02-08T03:12:56.882Z,-4.59
2023-02-08T03:13:56.854Z,-4.59
2023-02-08T03:14:56.847Z,-4.61
2023-02-08T03:15:56.868Z,-4.75
2023-02-08T03:16:56.896Z,-4.69
2023-02-08T03:17:56.808Z,-4.78
2023-02-08T03:18:56.818Z,-4.73
2023-02-08T03:19:56.797Z,-4.77
2023-02-08T03:20:56.816Z,-4.88
2023-02-08T03:21:56.793Z,-4.85
2023-02-08T03:22:56.790Z,-4.82
2023-02-08T03:23:56.817Z,-4.92
2023-02-08T03:24:56.769Z,-4.95
2023-02-08T03:25:56.846Z,-4.88
2023-02-08T03:26:56.763Z,-4.87
2023-02-08T03:27:56.806Z,-5.05
2023-02-08T03:28:56.828Z,-4.96
2023-02-08T03:29:56.718Z,-4.91
2023-02-08T03:30:56.800Z,-4.99
2023-02-08T03:31:56.867Z,-5.02
2023-02-08T03:32:56.721Z,-5.03
2023-02-08T03:33:56.709Z,-4.89
2023-02-08T03:34:56.701Z,-4.91
2023-02-08T03:35:56.711Z,-4.96
2023-02-08T03:36:56.674Z,-5.08
2023-02-08T03:37:56.680Z,-5.10
2023-02-08T03:38:56.668Z,-5.08
2023-02-08T03:39:56.668Z,-5.21
2023-02-08T03:40:56.678Z,-5.31
2023-02-08T03:41:56.712Z,-5.25
2023-02-08T03:42:56.646Z,-5.28
2023-02-08T03:43:56.625Z,-5.21
2023-02-08T03:44:56.615Z,-5.28
2023-02-08T03:45:56.659Z,-5.21
2023-02-08T03:46:56.649Z,-5.33
2023-02-08T04:03:07.024Z,-6.21
2023-02-08T04:04:07.033Z,-6.28
2023-02-08T04:05:07.021Z,-6.21
2023-02-08T04:06:07.007Z,-6.24
2023-02-08T04:07:08.156Z,-6.17
2023-02-08T04:08:08.148Z,-6.14
2023-02-08T04:09:08.121Z,-6.02
2023-02-08T04:10:08.123Z,-5.97
2023-02-08T04:11:08.097Z,-6.13
2023-02-08T04:12:08.122Z,-5.92
2023-02-08T04:13:08.083Z,-5.95
2023-02-08T04:14:08.121Z,-5.78
2023-02-08T04:15:08.065Z,-5.85
2023-02-08T04:16:08.791Z,-5.75
2023-02-08T04:17:08.082Z,-5.72
2023-02-08T04:18:08.048Z,-5.72
2023-02-08T04:19:08.040Z,-5.68
2023-02-08T04:20:08.054Z,-5.68
2023-02-08T04:21:08.073Z,-5.68
2023-02-08T04:22:08.028Z,-5.68
2023-02-08T04:23:08.004Z,-5.66
2023-02-08T04:24:08.000Z,-5.71
2023-02-08T04:25:08.062Z,-5.75
2023-02-08T04:26:07.997Z,-5.72
2023-02-08T04:27:07.985Z,-5.63
2023-02-08T04:28:08.097Z,-5.68
2023-02-08T04:29:07.969Z,-5.71
2023-02-08T04:30:07.963Z,-5.74
2023-02-08T04:31:08.823Z,-5.67
2023-02-08T04:32:07.988Z,-5.79
2023-02-08T04:33:07.948Z,-5.82
2023-02-08T04:34:07.970Z,-5.81
2023-02-08T04:35:07.915Z,-5.75
2023-02-08T04:36:07.946Z,-5.78
2023-02-08T04:37:07.932Z,-5.79
2023-02-08T04:38:07.900Z,-5.90
2023-02-08T04:39:07.886Z,-5.92
2023-02-08T04:40:07.890Z,-5.95
2023-02-08T04:41:07.905Z,-5.90
2023-02-08T04:42:07.888Z,-5.76
2023-02-08T04:43:07.883Z,-5.82
2023-02-08T04:44:07.885Z,-5.79
2023-02-08T04:45:07.917Z,-5.78
2023-02-08T04:46:07.858Z,-5.64
2023-02-08T04:47:07.876Z,-5.66
2023-02-08T04:48:07.831Z,-5.51
2023-02-08T04:49:07.816Z,-5.54
2023-02-08T04:50:07.837Z,-5.60
2023-02-08T04:51:07.840Z,-5.67
2023-02-08T04:52:07.803Z,-5.90
2023-02-08T04:53:07.823Z,-5.96
2023-02-08T04:54:07.804Z,-5.95
2023-02-08T04:55:07.793Z,-5.93
2023-02-08T04:56:07.826Z,-6.00
2023-02-08T04:57:07.804Z,-6.02
2023-02-08T04:58:07.797Z,-6.08
2023-02-08T04:59:07.754Z,-6.07
2023-02-08T05:00:07.790Z,-6.07
2023-02-08T05:01:07.741Z,-6.00
2023-02-08T05:02:07.725Z,-6.02
2023-02-08T05:03:07.735Z,-5.96
2023-02-08T05:04:07.738Z,-6.03
2023-02-08T05:05:07.801Z,-5.99
2023-02-08T05:06:07.699Z,-6.08
2023-02-08T05:07:07.688Z,-6.07
2023-02-08T05:08:07.674Z,-5.92
2023-02-08T05:09:07.705Z,-5.92
2023-02-08T05:10:07.731Z,-5.89
2023-02-08T05:11:07.680Z,-5.95
2023-02-08T05:12:07.645Z,-5.86
2023-02-08T05:13:07.641Z,-5.90
2023-02-08T05:14:07.634Z,-5.93
2023-02-08T05:15:07.656Z,-5.99
2023-02-08T05:16:07.714Z,-6.03
2023-02-08T05:17:07.628Z,-5.95
2023-02-08T05:18:07.617Z,-5.93
2023-02-08T05:19:07.596Z,-5.90
2023-02-08T05:20:07.605Z,-5.93
2023-02-08T05:21:07.615Z,-6.11
2023-02-08T05:22:07.594Z,-6.10
2023-02-08T05:23:07.585Z,-6.07
2023-02-08T05:24:07.603Z,-6.02
2023-02-08T05:25:39.485Z,-6.10
2023-02-08T05:26:07.549Z,-6.13
2023-02-08T05:27:07.565Z,-6.20
2023-02-08T05:28:07.574Z,-6.15
2023-02-08T05:29:07.541Z,-6.36
2023-02-08T05:30:07.526Z,-6.28
2023-02-08T05:31:39.563Z,-6.39
2023-02-08T05:32:07.520Z,-6.26
2023-02-08T05:33:07.514Z,-6.42
2023-02-08T05:34:07.514Z,-6.28
2023-02-08T05:35:07.484Z,-6.28
2023-02-08T05:36:07.497Z,-6.21
2023-02-08T05:37:07.456Z,-6.23
2023-02-08T05:38:07.473Z,-6.23
2023-02-08T05:39:07.455Z,-6.14
2023-02-08T05:40:07.462Z,-6.20
2023-02-08T05:41:07.465Z,-6.23
2023-02-08T05:42:07.431Z,-6.34
2023-02-08T05:43:07.487Z,-6.31
2023-02-08T05:44:07.425Z,-6.20
2023-02-08T05:45:07.407Z,-6.24
2023-02-08T05:46:07.439Z,-6.21
2023-02-08T05:47:07.499Z,-6.23
2023-02-08T05:48:07.415Z,-6.26
2023-02-08T05:49:07.376Z,-6.24
2023-02-08T05:50:07.388Z,-6.35
2023-02-08T05:51:07.365Z,-6.26
2023-02-08T05:52:07.352Z,-6.28
2023-02-08T05:53:07.376Z,-6.17
2023-02-08T05:54:07.350Z,-6.18
2023-02-08T05:55:07.324Z,-6.24
2023-02-08T05:56:07.314Z,-6.17
2023-02-08T05:57:07.368Z,-6.17
2023-02-08T05:58:07.358Z,-6.14
2023-02-08T05:59:07.358Z,-6.13
2023-02-08T06:00:07.331Z,-6.10
2023-02-08T06:01:07.328Z,-6.14
2023-02-08T06:02:07.335Z,-6.11
2023-02-08T06:03:07.339Z,-6.03
2023-02-08T06:04:07.311Z,-5.95
2023-02-08T06:05:07.323Z,-5.93
2023-02-08T06:06:07.267Z,-5.85
2023-02-08T06:07:07.254Z,-5.85
2023-02-08T06:08:07.303Z,-5.95
2023-02-08T06:09:07.243Z,-6.00
2023-02-08T06:10:07.302Z,-6.08
2023-02-08T06:11:07.207Z,-6.14
2023-02-08T06:12:07.202Z,-6.05
2023-02-08T06:13:07.223Z,-6.17
2023-02-08T06:14:07.207Z,-6.18
2023-02-08T06:15:07.210Z,-6.23
2023-02-08T06:16:07.248Z,-6.26
2023-02-08T06:17:07.216Z,-6.29
2023-02-08T06:18:07.163Z,-6.28
2023-02-08T06:19:07.173Z,-6.26
2023-02-08T06:20:39.531Z,-6.35
2023-02-08T06:21:07.128Z,-6.32
2023-02-08T06:22:07.141Z,-6.32
2023-02-08T06:23:07.125Z,-6.28
2023-02-08T06:24:07.115Z,-6.18
2023-02-08T06:25:08.133Z,-6.20
2023-02-08T06:26:07.133Z,-6.15
2023-02-08T06:27:07.160Z,-6.17
2023-02-08T06:28:07.143Z,-6.20
2023-02-08T06:29:07.107Z,-6.28
2023-02-08T06:30:07.066Z,-6.31
2023-02-08T06:31:07.090Z,-6.39
2023-02-08T06:32:07.176Z,-6.32
2023-02-08T06:33:07.059Z,-6.36
2023-02-08T06:34:07.060Z,-6.24
2023-02-08T06:35:07.034Z,-6.35
2023-02-08T06:36:07.056Z,-6.34
2023-02-08T06:37:07.016Z,-6.29
2023-02-08T06:38:07.026Z,-6.28
2023-02-08T06:39:07.011Z,-6.28
2023-02-08T06:40:07.008Z,-6.29
2023-02-08T06:41:07.028Z,-6.15
2023-02-08T06:42:06.981Z,-6.20
2023-02-08T06:43:07.014Z,-6.14
2023-02-08T06:44:06.980Z,-6.14
2023-02-08T06:45:06.986Z,-6.14
2023-02-08T06:46:06.999Z,-6.08
2023-02-08T06:47:06.960Z,-6.10
2023-02-08T06:48:06.962Z,-6.17
2023-02-08T06:49:06.938Z,-6.08
2023-02-08T06:50:06.940Z,-6.20
2023-02-08T06:51:06.927Z,-6.14
2023-02-08T06:52:06.937Z,-6.18
2023-02-08T06:53:06.920Z,-6.17
2023-02-08T06:54:06.913Z,-6.24
2023-02-08T06:55:06.877Z,-6.23
2023-02-08T06:56:06.879Z,-6.32
2023-02-08T06:57:06.891Z,-6.35
2023-02-08T06:58:06.912Z,-6.20
2023-02-08T06:59:06.847Z,-6.18
2023-02-08T07:00:06.851Z,-6.13
2023-02-08T07:01:06.854Z,-6.11
2023-02-08T07:02:06.924Z,-6.10
2023-02-08T07:03:06.843Z,-6.11
2023-02-08T07:04:06.817Z,-5.96
2023-02-08T07:05:06.849Z,-6.03
2023-02-08T07:06:06.790Z,-5.93
2023-02-08T07:07:06.826Z,-5.96
2023-02-08T07:08:06.781Z,-6.08
2023-02-08T07:09:06.798Z,-6.07
2023-02-08T07:10:06.777Z,-6.05
2023-02-08T07:11:06.759Z,-5.97
2023-02-08T07:12:06.784Z,-5.96
2023-02-08T07:13:06.765Z,-5.81
2023-02-08T07:14:06.823Z,-5.86
2023-02-08T07:15:06.769Z,-5.81
2023-02-08T07:16:06.739Z,-5.78
2023-02-08T07:17:06.757Z,-5.76
2023-02-08T07:18:06.720Z,-5.75
2023-02-08T07:19:06.750Z,-5.76
2023-02-08T07:20:06.705Z,-5.67
2023-02-08T07:21:06.711Z,-5.79
2023-02-08T07:22:07.552Z,-5.64
2023-02-08T07:23:07.682Z,-5.67
2023-02-08T07:24:06.666Z,-5.67
2023-02-08T07:25:06.690Z,-5.63
2023-02-08T07:26:06.670Z,-5.56
2023-02-08T07:27:06.691Z,-5.31
2023-02-08T07:28:06.693Z,-4.95
2023-02-08T07:29:06.623Z,-4.81
2023-02-08T07:30:06.627Z,-4.30
2023-02-08T07:31:06.731Z,-4.24
2023-02-08T07:32:06.684Z,-3.89
2023-02-08T07:33:06.616Z,-3.51
2023-02-08T07:34:06.639Z,-3.10
2023-02-08T07:35:06.615Z,-2.70
2023-02-08T07:36:06.598Z,-2.37
2023-02-08T07:37:06.599Z,-2.08
2023-02-08T07:38:06.624Z,-1.66
2023-02-08T07:39:06.553Z,-1.22
2023-02-08T07:40:06.572Z,-0.70
2023-02-08T07:41:06.556Z,-0.28
2023-02-08T07:42:06.574Z,0.16
2023-02-08T07:43:06.553Z,0.56
2023-02-08T07:44:06.528Z,0.80
2023-02-08T07:45:06.518Z,1.14
2023-02-08T07:46:06.544Z,1.48
2023-02-08T07:47:06.501Z,0.99
2023-02-08T07:48:06.528Z,1.19
2023-02-08T07:49:06.547Z,1.44
2023-02-08T07:50:06.495Z,1.45
2023-02-08T07:51:07.259Z,1.42
2023-02-08T07:52:06.518Z,1.23
2023-02-08T07:53:06.520Z,0.91
2023-02-08T07:54:06.453Z,1.24
2023-02-08T07:55:06.448Z,1.13
2023-02-08T07:56:06.433Z,1.12
2023-02-08T07:57:06.440Z,1.10
2023-02-08T07:58:06.447Z,1.30
2023-02-08T07:59:06.416Z,1.16
2023-02-08T08:00:06.407Z,1.05
2023-02-08T08:01:20.891Z,1.58
2023-02-08T08:02:08.396Z,1.88
2023-02-08T08:03:07.399Z,1.78
2023-02-08T08:04:06.479Z,1.55
2023-02-08T08:05:06.405Z,1.42
2023-02-08T08:06:06.374Z,1.63
2023-02-08T08:07:06.346Z,1.53
2023-02-08T08:08:06.378Z,1.53
2023-02-08T08:09:06.344Z,1.13
2023-02-08T08:10:06.352Z,0.95
2023-02-08T08:11:06.321Z,1.12
2023-02-08T08:12:06.326Z,1.35
2023-02-08T08:13:06.310Z,1.59
2023-02-08T08:14:06.306Z,1.94
2023-02-08T08:15:06.307Z,2.20
2023-02-08T08:16:06.344Z,1.85
2023-02-08T08:17:06.395Z,1.70
2023-02-08T08:18:06.408Z,1.45
2023-02-08T08:19:06.262Z,1.41
2023-02-08T08:20:06.270Z,1.19
2023-02-08T08:21:06.248Z,1.48
2023-02-08T08:22:06.253Z,1.52
2023-02-08T08:23:06.236Z,1.74
2023-02-08T08:24:06.228Z,1.68
2023-02-08T08:25:06.234Z,2.10
2023-02-08T08:26:06.211Z,2.35
2023-02-08T08:27:06.283Z,2.85
2023-02-08T08:28:06.249Z,3.55
2023-02-08T08:29:06.211Z,3.70
2023-02-08T08:30:06.175Z,4.16
2023-02-08T08:31:06.280Z,4.49
2023-02-08T08:32:06.167Z,4.75
2023-02-08T08:33:06.171Z,4.73
2023-02-08T08:34:06.188Z,4.40
2023-02-08T08:35:06.141Z,4.41
2023-02-08T08:36:06.167Z,4.42
2023-02-08T08:37:06.148Z,4.41
2023-02-08T08:38:06.136Z,4.48
2023-02-08T08:39:06.167Z,3.86
2023-02-08T08:40:06.093Z,4.37
2023-02-08T08:41:06.124Z,5.07
2023-02-08T08:42:06.089Z,5.30
2023-02-08T08:43:06.079Z,5.50
2023-02-08T08:44:06.108Z,4.75
2023-02-08T08:45:06.061Z,5.11
2023-02-08T08:46:06.082Z,5.04
2023-02-08T08:47:06.057Z,4.80
2023-02-08T08:48:06.077Z,4.66
2023-02-08T08:49:06.045Z,4.56
2023-02-08T08:50:06.030Z,3.88
2023-02-08T08:51:06.026Z,3.60
2023-02-08T08:52:06.015Z,3.48
2023-02-08T08:53:06.039Z,3.59
2023-02-08T08:54:06.042Z,4.48
2023-02-08T08:55:06.004Z,3.92
2023-02-08T08:56:06.001Z,3.76
2023-02-08T08:57:05.977Z,3.11
2023-02-08T08:58:05.985Z,2.71
2023-02-08T08:59:05.991Z,3.13
2023-02-08T09:00:05.968Z,3.36
2023-02-08T09:01:05.973Z,3.63
2023-02-08T09:02:05.994Z,4.04
2023-02-08T09:03:05.985Z,4.04
2023-02-08T09:04:05.933Z,4.42
2023-02-08T09:05:05.946Z,4.70
2023-02-08T09:06:05.936Z,4.73
2023-02-08T09:07:05.920Z,4.50
2023-02-08T09:08:05.887Z,4.37
2023-02-08T09:09:05.905Z,4.17
2023-02-08T09:10:05.885Z,3.37
2023-02-08T09:11:05.849Z,3.03
2023-02-08T09:12:05.867Z,3.08
2023-02-08T09:13:05.892Z,2.87
2023-02-08T09:14:05.859Z,2.67
2023-02-08T09:15:05.833Z,2.82
2023-02-08T09:16:06.393Z,2.74
2023-02-08T09:17:05.810Z,2.61
2023-02-08T09:18:05.823Z,2.62
2023-02-08T09:19:05.799Z,2.24
2023-02-08T09:20:05.781Z,2.14
2023-02-08T09:21:05.771Z,2.25
2023-02-08T09:22:05.805Z,2.33
2023-02-08T09:23:05.784Z,2.53
2023-02-08T09:24:05.788Z,2.61
2023-02-08T09:25:05.755Z,3.00
2023-02-08T09:26:05.753Z,2.80
2023-02-08T09:27:05.739Z,2.51
2023-02-08T09:28:05.766Z,1.80
2023-02-08T09:29:05.708Z,1.95
2023-02-08T09:30:05.690Z,1.89
2023-02-08T09:31:05.782Z,2.00
2023-02-08T09:32:05.749Z,2.18
2023-02-08T09:33:05.681Z,2.13
2023-02-08T09:34:05.683Z,2.42
2023-02-08T09:35:05.655Z,2.56
2023-02-08T09:36:05.641Z,2.46
2023-02-08T09:37:05.656Z,2.24
2023-02-08T09:38:05.658Z,2.35
2023-02-08T09:39:05.629Z,2.26
2023-02-08T09:40:05.628Z,2.50
2023-02-08T09:41:05.627Z,2.42
2023-02-08T09:42:05.596Z,2.33
2023-02-08T09:43:05.602Z,2.61
2023-02-08T09:44:05.627Z,2.51
2023-02-08T09:45:05.595Z,2.44
2023-02-08T09:46:05.584Z,2.54
2023-02-08T09:47:05.584Z,2.57
2023-02-08T09:48:05.626Z,2.50
2023-02-08T09:49:05.574Z,2.38
2023-02-08T09:50:05.561Z,2.68
2023-02-08T09:51:05.563Z,2.69
2023-02-08T09:52:05.539Z,2.72
2023-02-08T09:53:05.525Z,3.03
2023-02-08T09:54:05.529Z,3.04
2023-02-08T09:55:05.549Z,3.53
2023-02-08T09:56:05.537Z,3.68
2023-02-08T09:57:05.487Z,3.47
2023-02-08T09:58:05.503Z,3.94
2023-02-08T09:59:05.502Z,3.84
2023-02-08T10:00:05.497Z,4.12
2023-02-08T10:01:06.105Z,4.16
2023-02-08T10:02:06.485Z,3.96
2023-02-08T10:03:05.482Z,3.88
2023-02-08T10:04:05.509Z,3.80
2023-02-08T10:05:05.433Z,4.32
2023-02-08T10:06:05.450Z,4.44
2023-02-08T10:07:05.448Z,4.02
2023-02-08T10:08:05.399Z,4.49
2023-02-08T10:09:05.495Z,4.38
2023-02-08T10:10:05.399Z,3.77
2023-02-08T10:11:05.403Z,3.81
2023-02-08T10:12:05.361Z,3.63
2023-02-08T10:13:05.437Z,3.25
2023-02-08T10:14:05.395Z,3.03
2023-02-08T10:15:05.382Z,3.22
2023-02-08T10:16:05.386Z,3.53
2023-02-08T10:17:05.344Z,3.92
2023-02-08T10:18:05.376Z,3.70
2023-02-08T10:19:05.321Z,4.10
2023-02-08T10:20:05.288Z,4.10
2023-02-08T10:21:05.308Z,3.84
2023-02-08T10:22:05.335Z,3.95
2023-02-08T10:23:05.275Z,3.66
2023-02-08T10:24:05.302Z,3.86
2023-02-08T10:25:05.306Z,4.05
2023-02-08T10:26:05.263Z,4.32
2023-02-08T10:27:05.306Z,4.05
2023-02-08T10:28:05.397Z,3.87
2023-02-08T10:29:05.310Z,3.81
2023-02-08T10:30:05.245Z,3.66
2023-02-08T10:31:05.320Z,3.99
2023-02-08T10:32:05.348Z,4.38
2023-02-08T10:33:05.246Z,4.62
2023-02-08T10:34:07.490Z,4.71
2023-02-08T10:35:05.198Z,5.20
2023-02-08T10:36:05.190Z,5.62
2023-02-08T10:37:05.214Z,5.05
2023-02-08T10:38:05.208Z,5.28
2023-02-08T10:39:05.160Z,5.35
2023-02-08T10:40:05.156Z,5.32
2023-02-08T10:41:05.146Z,5.35
2023-02-08T10:42:05.153Z,5.62
2023-02-08T10:43:05.139Z,5.54
2023-02-08T10:44:06.134Z,5.48
2023-02-08T10:45:12.724Z,4.92
2023-02-08T10:46:07.204Z,5.04
2023-02-08T10:47:05.164Z,5.47
2023-02-08T10:48:05.088Z,5.75
2023-02-08T10:49:05.075Z,5.80
2023-02-08T10:50:05.066Z,6.08
2023-02-08T10:51:05.044Z,6.36
2023-02-08T10:52:05.047Z,6.27
2023-02-08T10:53:05.824Z,6.24
2023-02-08T10:54:05.807Z,6.09
2023-02-08T10:55:05.055Z,6.08
2023-02-08T10:56:05.026Z,6.16
2023-02-08T10:57:04.996Z,5.83
2023-02-08T10:58:04.986Z,5.62
2023-02-08T10:59:05.017Z,5.28
2023-02-08T11:00:05.000Z,5.46
2023-02-08T11:01:07.305Z,5.32
2023-02-08T11:02:04.967Z,5.41
2023-02-08T11:03:04.956Z,5.53
2023-02-08T11:04:05.093Z,5.51
2023-02-08T11:05:04.974Z,5.28
2023-02-08T11:06:04.937Z,5.29
2023-02-08T11:07:04.923Z,5.62
2023-02-08T11:08:04.915Z,5.56
2023-02-08T11:09:04.947Z,5.80
2023-02-08T11:10:04.907Z,6.05
2023-02-08T11:11:04.926Z,6.36
2023-02-08T11:12:05.780Z,6.78
2023-02-08T11:13:04.885Z,6.62
2023-02-08T11:14:04.879Z,6.74
2023-02-08T11:15:04.874Z,6.62
2023-02-08T11:16:04.859Z,6.88
2023-02-08T11:17:04.828Z,6.66
2023-02-08T11:18:04.868Z,6.56
2023-02-08T11:19:04.826Z,6.66
2023-02-08T11:20:04.846Z,6.59
2023-02-08T11:21:04.883Z,6.24
2023-02-08T11:22:04.841Z,6.41
2023-02-08T11:23:04.819Z,6.59
2023-02-08T11:24:04.844Z,6.75
2023-02-08T11:25:04.798Z,6.87
2023-02-08T11:26:04.771Z,6.63
2023-02-08T11:27:04.827Z,6.42
2023-02-08T11:28:04.770Z,6.22
2023-02-08T11:29:04.745Z,6.42
2023-02-08T11:30:04.732Z,6.67
2023-02-08T11:31:04.741Z,6.84
2023-02-08T11:32:04.829Z,6.75
2023-02-08T11:33:04.719Z,6.87
2023-02-08T11:34:04.713Z,7.39
2023-02-08T11:35:04.731Z,6.88
2023-02-08T11:36:04.705Z,6.85
2023-02-08T11:37:04.726Z,6.87
2023-02-08T11:38:04.682Z,7.14
2023-02-08T11:39:05.344Z,7.03
2023-02-08T11:40:04.663Z,6.96
2023-02-08T11:41:04.664Z,6.88
2023-02-08T11:42:04.678Z,7.17
2023-02-08T11:43:04.713Z,6.99
2023-02-08T11:44:04.643Z,6.64
2023-02-08T11:45:04.619Z,6.74
2023-02-08T11:46:04.663Z,7.25
2023-02-08T11:47:04.606Z,7.51
2023-02-08T11:48:04.695Z,7.14
2023-02-08T11:49:04.666Z,7.00
2023-02-08T11:50:04.578Z,6.57
2023-02-08T11:51:04.636Z,6.41
2023-02-08T11:52:04.572Z,6.24
2023-02-08T11:53:05.355Z,5.99
2023-02-08T11:54:04.592Z,6.44
2023-02-08T11:55:04.573Z,6.51
2023-02-08T11:56:04.556Z,5.68
2023-02-08T11:57:04.538Z,6.07
2023-02-08T11:58:04.544Z,6.22
2023-02-08T11:59:04.507Z,6.22
2023-02-08T12:00:04.513Z,6.36
2023-02-08T12:01:04.504Z,6.35
2023-02-08T12:02:04.507Z,6.30
2023-02-08T12:03:04.559Z,6.36
2023-02-08T12:04:04.482Z,6.45
2023-02-08T12:05:04.485Z,6.16
2023-02-08T12:06:04.461Z,6.16
2023-02-08T12:07:04.471Z,6.38
2023-02-08T12:08:04.441Z,6.42
2023-02-08T12:09:04.451Z,6.26
2023-02-08T12:10:04.439Z,6.20
2023-02-08T12:11:04.449Z,6.31
2023-02-08T12:12:04.428Z,6.22
2023-02-08T12:13:04.449Z,5.82
2023-02-08T12:14:04.421Z,5.57
2023-02-08T12:15:04.429Z,5.61
2023-02-08T12:16:04.831Z,5.76
2023-02-08T12:17:04.373Z,5.73
2023-02-08T12:18:04.410Z,5.69
2023-02-08T12:19:04.352Z,5.68
2023-02-08T12:20:36.460Z,5.93
2023-02-08T12:21:04.522Z,5.65
2023-02-08T12:22:04.354Z,5.84
2023-02-08T12:23:05.354Z,6.16
2023-02-08T12:24:04.321Z,6.08
2023-02-08T12:25:04.369Z,5.69
2023-02-08T12:26:04.353Z,5.59
2023-02-08T12:27:04.384Z,5.51
2023-02-08T12:28:04.309Z,5.56
2023-02-08T12:29:04.308Z,5.50
2023-02-08T12:30:04.282Z,5.75
2023-02-08T12:31:04.448Z,5.71
2023-02-08T12:32:04.254Z,5.43
2023-02-08T12:33:04.340Z,5.29
2023-02-08T12:34:04.261Z,5.25
2023-02-08T12:35:04.565Z,5.23
2023-02-08T12:36:05.546Z,5.43
2023-02-08T12:37:05.229Z,5.41
2023-02-08T12:38:04.367Z,5.43
2023-02-08T12:39:17.039Z,5.65
2023-02-08T12:40:06.243Z,5.48
2023-02-08T12:41:04.188Z,5.36
2023-02-08T12:42:04.210Z,5.23
2023-02-08T12:43:04.195Z,5.26
2023-02-08T12:44:04.216Z,5.17
2023-02-08T12:45:04.167Z,5.15
2023-02-08T12:46:04.197Z,5.25
2023-02-08T12:47:04.148Z,5.04
2023-02-08T12:48:05.106Z,4.87
2023-02-08T12:49:05.117Z,4.99
2023-02-08T12:50:04.146Z,5.00
2023-02-08T12:51:04.101Z,5.05
2023-02-08T12:52:04.114Z,5.25
2023-02-08T12:53:04.098Z,5.30
2023-02-08T12:54:04.125Z,5.41
2023-02-08T12:55:04.116Z,5.29
2023-02-08T12:56:04.857Z,5.32
2023-02-08T12:57:04.167Z,5.43
2023-02-08T12:58:04.088Z,5.73
2023-02-08T12:59:13.472Z,5.64
2023-02-08T13:00:06.080Z,5.66
2023-02-08T13:01:04.039Z,5.73
2023-02-08T13:02:04.051Z,5.76
2023-02-08T13:03:04.014Z,5.30
2023-02-08T13:04:04.028Z,5.28
2023-02-08T13:05:03.995Z,5.35
2023-02-08T13:06:04.369Z,5.35
2023-02-08T13:07:04.006Z,5.02
2023-02-08T13:08:03.980Z,4.78
2023-02-08T13:09:04.038Z,5.23
2023-02-08T13:10:03.976Z,5.32
2023-02-08T13:11:18.876Z,5.18
2023-02-08T13:12:05.945Z,4.99
2023-02-08T13:13:03.960Z,5.23
2023-02-08T13:14:03.968Z,5.32
2023-02-08T13:15:03.997Z,5.36
2023-02-08T13:16:03.937Z,5.20
2023-02-08T13:17:03.954Z,5.36
2023-02-08T13:18:03.913Z,5.38
2023-02-08T13:19:05.351Z,5.48